Time;durP1;ratioP1;P1;durP2;ratioP2;P2;SDS_P1;SDS_P2;PMS_P1;PMS_P2;Temp;Humidity;BMP_temperature;BMP_pressure;BME280_temperature;BME280_humidity;BME280_pressure;Samples;Min_cycle;Max_cycle;Signal;HPM_P1;HPM_P2
2023/10/24 00:01:35;;;;;;;48.65;43.03;;;16.90;1.00;;;;;;5067816;28;20412;-69
2023/10/24 00:04:00;;;;;;;46.95;42.15;;;16.80;1.00;;;;;;5069551;28;20051;-69
2023/10/24 00:06:26;;;;;;;48.13;43.13;;;16.90;1.00;;;;;;5069452;28;20503;-68
2023/10/24 00:08:51;;;;;;;47.20;42.60;;;16.90;1.00;;;;;;5060599;28;20051;-69
2023/10/24 00:11:17;;;;;;;48.15;43.35;;;16.80;12.90;;;;;;5063661;28;20033;-68
2023/10/24 00:13:42;;;;;;;50.28;44.70;;;16.80;28.30;;;;;;5068187;28;20048;-69
2023/10/24 00:16:08;;;;;;;53.00;47.40;;;16.80;46.90;;;;;;5069377;28;20047;-68
2023/10/24 00:18:33;;;;;;;52.40;46.88;;;16.90;68.10;;;;;;5067988;28;20032;-68
2023/10/24 00:21:00;;;;;;;52.08;46.88;;;16.80;97.90;;;;;;5067511;28;20091;-69
2023/10/24 00:23:29;;;;;;;52.53;46.90;;;16.70;99.90;;;;;;5068870;28;20132;-69
2023/10/24 00:25:54;;;;;;;52.72;47.22;;;16.80;99.90;;;;;;5067433;28;20052;-69
2023/10/24 00:28:20;;;;;;;51.17;46.00;;;17.00;99.90;;;;;;5069360;28;20041;-61
2023/10/24 00:30:46;;;;;;;52.58;46.95;;;16.70;99.90;;;;;;5068829;28;20040;-62
2023/10/24 00:33:11;;;;;;;51.25;46.20;;;16.80;99.90;;;;;;5068970;28;20079;-62
2023/10/24 00:35:37;;;;;;;52.63;47.40;;;16.80;99.90;;;;;;5068451;28;20047;-62
2023/10/24 00:38:02;;;;;;;53.88;48.38;;;16.80;99.90;;;;;;5068137;28;20036;-63
2023/10/24 00:40:28;;;;;;;51.78;46.25;;;16.90;99.90;;;;;;5068295;28;20305;-63
2023/10/24 00:42:53;;;;;;;51.28;46.08;;;17.40;99.90;;;;;;5068131;28;20137;-62
2023/10/24 00:45:19;;;;;;;53.05;47.92;;;16.80;99.90;;;;;;5068533;28;20591;-63
2023/10/24 00:47:45;;;;;;;53.30;48.17;;;16.80;99.90;;;;;;5068332;28;20473;-63
2023/10/24 00:50:12;;;;;;;50.70;45.95;;;16.80;99.90;;;;;;5068699;28;20058;-62
2023/10/24 00:52:39;;;;;;;49.38;44.60;;;16.90;99.90;;;;;;5068433;28;20044;-63
2023/10/24 00:55:07;;;;;;;52.63;46.65;;;16.80;99.90;;;;;;5067975;28;20040;-62
2023/10/24 00:57:33;;;;;;;53.05;47.78;;;17.00;99.90;;;;;;5068119;28;20029;-62
2023/10/24 00:59:59;;;;;;;51.63;46.25;;;16.70;99.90;;;;;;5068349;28;20498;-63
2023/10/24 01:02:25;;;;;;;51.65;46.65;;;16.70;99.90;;;;;;5066858;28;20084;-62
2023/10/24 01:04:54;;;;;;;53.72;48.05;;;16.60;99.90;;;;;;5068249;28;20558;-62
2023/10/24 01:07:20;;;;;;;53.35;47.67;;;16.90;99.90;;;;;;5068292;28;20055;-62
2023/10/24 01:09:45;;;;;;;52.22;46.85;;;16.70;99.90;;;;;;5067889;28;20406;-62
2023/10/24 01:12:11;;;;;;;55.25;49.58;;;16.70;99.90;;;;;;5068336;28;20032;-62
2023/10/24 01:14:37;;;;;;;54.85;49.25;;;16.60;99.90;;;;;;5068388;28;20068;-63
2023/10/24 01:17:10;;;;;;;55.22;49.65;;;17.10;1.00;;;;;;5067984;28;20044;-62
2023/10/24 01:19:35;;;;;;;53.35;47.65;;;16.70;1.00;;;;;;5067418;28;20052;-62
2023/10/24 01:22:01;;;;;;;56.03;48.97;;;16.70;1.00;;;;;;5068201;28;20037;-63
2023/10/24 01:24:27;;;;;;;52.97;47.40;;;17.00;1.00;;;;;;5068502;28;20066;-62
2023/10/24 01:26:56;;;;;;;53.67;47.95;;;17.00;1.00;;;;;;5068316;28;20048;-62
2023/10/24 01:29:22;;;;;;;54.03;47.45;;;16.90;1.00;;;;;;5067759;28;20389;-62
2023/10/24 01:31:48;;;;;;;57.13;51.10;;;16.70;34.90;;;;;;5067051;28;20353;-62
2023/10/24 01:34:13;;;;;;;52.95;47.28;;;16.60;99.90;;;;;;5066611;28;20083;-63
2023/10/24 01:36:39;;;;;;;55.10;48.97;;;17.00;99.90;;;;;;5067946;28;20048;-63
2023/10/24 01:39:04;;;;;;;58.30;52.15;;;16.60;99.90;;;;;;5068158;28;20049;-69
2023/10/24 01:41:30;;;;;;;56.17;50.25;;;17.10;99.90;;;;;;5067677;28;20033;-68
2023/10/24 01:43:57;;;;;;;60.67;50.70;;;17.00;99.90;;;;;;5067650;28;20231;-69
2023/10/24 01:46:23;;;;;;;58.33;50.55;;;16.80;99.90;;;;;;5067317;28;20041;-68
2023/10/24 01:48:49;;;;;;;55.72;49.63;;;17.00;99.90;;;;;;5067641;28;20433;-68
2023/10/24 01:51:14;;;;;;;53.28;47.58;;;16.70;99.90;;;;;;5066922;28;20406;-69
2023/10/24 01:53:40;;;;;;;57.55;51.38;;;16.60;99.90;;;;;;5067018;28;20037;-68
2023/10/24 01:56:05;;;;;;;56.30;50.42;;;16.60;99.90;;;;;;5067173;28;20040;-68
2023/10/24 01:58:31;;;;;;;58.15;51.85;;;16.60;99.90;;;;;;5067916;28;20044;-70
2023/10/24 02:00:56;;;;;;;58.67;52.28;;;16.60;99.90;;;;;;5066984;28;20127;-68
2023/10/24 02:03:22;;;;;;;59.42;52.92;;;16.60;99.90;;;;;;5067210;28;20532;-66
2023/10/24 02:05:48;;;;;;;61.78;55.22;;;16.70;1.00;;;;;;5067027;28;20044;-68
2023/10/24 02:08:13;;;;;;;59.30;51.97;;;16.80;1.00;;;;;;5066857;28;20078;-67
2023/10/24 02:10:39;;;;;;;55.55;49.72;;;16.90;1.00;;;;;;5067269;28;20116;-69
2023/10/24 02:13:04;;;;;;;61.00;51.53;;;17.00;1.00;;;;;;5067012;28;20055;-68
2023/10/24 02:15:30;;;;;;;57.75;51.55;;;16.80;1.00;;;;;;5067065;28;20050;-68
2023/10/24 02:17:55;;;;;;;58.20;51.25;;;16.80;1.00;;;;;;5066295;28;20040;-67
2023/10/24 02:20:21;;;;;;;58.40;52.20;;;16.60;1.00;;;;;;5066770;28;20061;-68
2023/10/24 02:22:49;;;;;;;58.35;52.17;;;16.50;1.00;;;;;;5067246;28;20049;-68
2023/10/24 02:25:14;;;;;;;57.20;51.20;;;16.50;1.00;;;;;;5065841;28;20151;-66
2023/10/24 02:27:40;;;;;;;55.88;50.00;;;17.50;1.00;;;;;;5081752;28;20165;-68
2023/10/24 02:30:06;;;;;;;55.22;49.95;;;17.50;19.20;;;;;;5067251;28;20703;-68
2023/10/24 02:32:32;;;;;;;55.33;49.70;;;17.10;14.10;;;;;;5067222;28;20158;-69
2023/10/24 02:34:58;;;;;;;58.92;50.45;;;16.60;70.10;;;;;;5067096;28;20075;-68
2023/10/24 02:37:23;;;;;;;53.78;48.22;;;16.80;66.90;;;;;;5066742;28;20043;-68
2023/10/24 02:39:49;;;;;;;54.47;48.58;;;17.00;99.90;;;;;;5066875;28;20033;-68
2023/10/24 02:42:15;;;;;;;54.03;48.35;;;16.80;99.90;;;;;;5065124;28;20072;-68
2023/10/24 02:44:40;;;;;;;53.25;47.45;;;16.60;99.90;;;;;;5065670;28;20051;-68
2023/10/24 02:47:06;;;;;;;54.35;49.05;;;17.00;99.90;;;;;;5066577;28;20045;-67
2023/10/24 02:49:32;;;;;;;55.13;49.28;;;16.90;99.90;;;;;;5066188;28;20571;-68
2023/10/24 02:51:58;;;;;;;55.17;49.58;;;16.90;99.90;;;;;;5064987;28;20090;-67
2023/10/24 02:54:23;;;;;;;54.08;48.63;;;16.60;99.90;;;;;;5050396;28;20128;-68
2023/10/24 02:56:49;;;;;;;53.85;48.25;;;16.70;99.90;;;;;;5046588;28;20037;-68
2023/10/24 02:59:16;;;;;;;55.35;49.67;;;16.90;1.00;;;;;;5045591;28;20045;-67
2023/10/24 03:01:42;;;;;;;50.42;45.53;;;16.60;1.00;;;;;;5066405;28;20037;-69
2023/10/24 03:04:08;;;;;;;55.17;49.83;;;17.00;1.00;;;;;;5065648;28;20068;-68
2023/10/24 03:06:33;;;;;;;52.53;47.20;;;17.00;1.00;;;;;;5066954;28;20083;-67
2023/10/24 03:08:59;;;;;;;53.20;47.97;;;17.10;1.00;;;;;;5056855;28;20491;-68
2023/10/24 03:11:25;;;;;;;54.88;49.38;;;17.10;1.00;;;;;;5065171;28;20529;-68
2023/10/24 03:13:54;;;;;;;51.80;46.65;;;16.70;1.00;;;;;;5066083;28;20078;-67
2023/10/24 03:16:20;;;;;;;50.45;45.58;;;16.70;26.80;;;;;;5066465;28;20048;-68
2023/10/24 03:18:46;;;;;;;49.88;45.17;;;16.90;48.30;;;;;;5066298;28;20063;-68
2023/10/24 03:21:12;;;;;;;55.40;50.08;;;16.70;1.00;;;;;;5066346;28;20049;-67
2023/10/24 03:23:40;;;;;;;54.42;49.33;;;17.30;99.90;;;;;;5060944;28;20054;-68
2023/10/24 03:26:06;;;;;;;51.50;46.63;;;16.70;16.60;;;;;;5065312;28;20052;-69
2023/10/24 03:28:32;;;;;;;50.05;45.50;;;17.10;1.00;;;;;;5066644;28;20067;-69
2023/10/24 03:31:05;;;;;;;51.85;47.00;;;16.70;1.00;;;;;;5066321;28;20044;-67
2023/10/24 03:33:32;;;;;;;54.25;49.13;;;17.00;64.30;;;;;;5063074;28;20440;-69
2023/10/24 03:35:58;;;;;;;49.78;45.08;;;17.10;99.90;;;;;;5065993;28;20041;-68
2023/10/24 03:38:24;;;;;;;50.78;45.95;;;17.40;99.90;;;;;;5066197;28;20490;-67
2023/10/24 03:40:51;;;;;;;52.45;47.55;;;16.80;99.90;;;;;;5065758;28;20044;-68
2023/10/24 03:43:16;;;;;;;47.92;43.53;;;16.80;99.90;;;;;;5065379;28;20048;-68
2023/10/24 03:45:43;;;;;;;48.85;44.20;;;17.30;99.90;;;;;;5092895;28;20060;-69
2023/10/24 03:48:09;;;;;;;49.60;45.22;;;16.80;99.90;;;;;;5065521;28;20057;-69
2023/10/24 03:50:38;;;;;;;49.60;44.97;;;16.80;99.90;;;;;;5065838;28;20410;-67
2023/10/24 03:53:05;;;;;;;49.97;45.15;;;16.80;99.90;;;;;;5064795;28;20710;-69
2023/10/24 03:55:31;;;;;;;50.95;46.33;;;17.20;1.00;;;;;;5068612;28;20042;-67
2023/10/24 03:57:57;;;;;;;52.10;47.20;;;17.60;1.00;;;;;;5068424;28;20045;-68
2023/10/24 04:00:23;;;;;;;48.58;44.28;;;17.40;88.80;;;;;;5069819;28;20111;-62
2023/10/24 04:02:52;;;;;;;47.28;42.92;;;17.40;91.10;;;;;;5068442;28;20139;-61
2023/10/24 04:05:18;;;;;;;49.90;45.35;;;17.20;1.00;;;;;;5069991;28;20051;-62
2023/10/24 04:07:44;;;;;;;47.72;43.22;;;16.80;1.00;;;;;;5069411;28;20037;-59
2023/10/24 04:10:14;;;;;;;50.45;45.58;;;17.00;1.00;;;;;;5069642;28;20044;-61
2023/10/24 04:12:40;;;;;;;48.33;44.00;;;17.00;1.20;;;;;;5068843;28;20040;-60
2023/10/24 04:15:07;;;;;;;48.83;44.28;;;16.80;99.90;;;;;;5068902;28;20115;-62
2023/10/24 04:17:33;;;;;;;49.72;45.20;;;17.10;1.00;;;;;;5069419;28;20249;-60
2023/10/24 04:19:58;;;;;;;48.85;44.38;;;17.60;1.00;;;;;;5069212;28;20783;-61
2023/10/24 04:22:24;;;;;;;48.80;44.00;;;17.00;1.00;;;;;;5067864;28;20517;-61
2023/10/24 04:24:50;;;;;;;49.85;45.20;;;16.90;1.00;;;;;;5068211;28;20041;-60
2023/10/24 04:27:16;;;;;;;52.85;47.45;;;16.90;1.00;;;;;;5068938;28;20052;-61
2023/10/24 04:29:42;;;;;;;53.38;48.15;;;17.60;1.00;;;;;;5068886;28;20044;-59
2023/10/24 04:32:08;;;;;;;49.70;44.80;;;17.00;80.90;;;;;;5068766;28;20048;-61
2023/10/24 04:34:33;;;;;;;51.63;46.40;;;17.20;99.90;;;;;;5068247;28;20041;-61
2023/10/24 04:37:00;;;;;;;50.58;45.60;;;17.00;99.90;;;;;;5068529;28;20043;-62
2023/10/24 04:39:27;;;;;;;53.28;47.88;;;17.30;99.90;;;;;;5069235;28;20036;-60
2023/10/24 04:41:53;;;;;;;50.95;45.95;;;17.30;1.00;;;;;;5068779;28;20047;-61
2023/10/24 04:44:19;;;;;;;52.05;46.63;;;16.90;99.90;;;;;;5068118;28;20422;-62
2023/10/24 04:46:45;;;;;;;63.78;50.58;;;18.00;99.90;;;;;;5063457;28;20033;-62
2023/10/24 04:49:11;;;;;;;52.08;46.63;;;17.80;99.90;;;;;;5068857;28;20170;-61
2023/10/24 04:51:36;;;;;;;54.78;49.20;;;17.50;99.90;;;;;;5069326;28;20153;-62
2023/10/24 04:54:02;;;;;;;55.50;49.58;;;17.30;1.00;;;;;;5067938;28;20502;-60
2023/10/24 04:56:28;;;;;;;57.45;51.45;;;17.20;1.00;;;;;;5068224;28;20380;-60
2023/10/24 04:58:55;;;;;;;56.42;50.47;;;17.60;92.80;;;;;;5068818;28;20033;-61
2023/10/24 05:01:20;;;;;;;58.08;51.95;;;17.20;99.90;;;;;;5068732;28;20041;-62
2023/10/24 05:03:46;;;;;;;58.88;52.28;;;17.60;98.30;;;;;;5064176;28;20040;-60
2023/10/24 05:06:12;;;;;;;59.10;50.67;;;18.00;99.90;;;;;;5056134;28;20482;-60
2023/10/24 05:08:38;;;;;;;58.22;52.00;;;17.40;99.90;;;;;;5068435;28;20040;-60
2023/10/24 05:11:04;;;;;;;60.08;53.65;;;17.90;99.90;;;;;;5066386;28;20067;-61
2023/10/24 05:13:29;;;;;;;57.65;50.42;;;18.10;99.90;;;;;;5066166;28;20080;-62
2023/10/24 05:15:55;;;;;;;55.95;49.78;;;17.80;99.90;;;;;;5056194;28;20373;-61
2023/10/24 05:18:21;;;;;;;55.55;49.50;;;17.90;99.90;;;;;;5066963;28;20414;-62
2023/10/24 05:20:46;;;;;;;57.53;51.47;;;18.30;1.00;;;;;;5068077;28;20387;-61
2023/10/24 05:23:12;;;;;;;58.67;50.72;;;17.50;1.00;;;;;;5068198;28;20036;-60
2023/10/24 05:25:38;;;;;;;55.20;49.55;;;17.50;1.00;;;;;;5059042;28;20045;-62
2023/10/24 05:28:04;;;;;;;59.05;52.58;;;18.10;1.00;;;;;;5068364;28;20048;-62
2023/10/24 05:30:29;;;;;;;57.30;51.45;;;18.40;1.00;;;;;;5068270;28;20494;-61
2023/10/24 05:32:58;;;;;;;61.72;55.42;;;17.60;39.80;;;;;;5067352;28;20400;-62
2023/10/24 05:35:23;;;;;;;58.05;51.85;;;17.60;99.90;;;;;;5051045;28;20510;-62
2023/10/24 05:37:52;;;;;;;59.15;52.75;;;18.00;99.90;;;;;;5065414;28;20032;-60
2023/10/24 05:40:17;;;;;;;60.30;51.70;;;18.50;99.90;;;;;;5068966;28;20047;-61
2023/10/24 05:42:44;;;;;;;64.78;53.38;;;17.90;99.90;;;;;;5067081;28;20040;-61
2023/10/24 05:45:10;;;;;;;66.18;52.47;;;17.80;1.00;;;;;;5065383;28;20048;-61
2023/10/24 05:47:35;;;;;;;65.40;55.13;;;18.10;1.00;;;;;;5057163;28;21448;-60
2023/10/24 05:50:01;;;;;;;62.78;54.08;;;18.20;1.00;;;;;;5064980;28;20040;-61
2023/10/24 05:52:26;;;;;;;72.03;57.38;;;18.60;1.00;;;;;;5067232;28;20036;-62
2023/10/24 05:54:52;;;;;;;66.28;56.65;;;18.70;9.20;;;;;;5063153;28;20048;-62
2023/10/24 05:57:18;;;;;;;64.25;54.40;;;17.70;88.80;;;;;;5065712;28;20119;-60
2023/10/24 05:59:43;;;;;;;80.32;56.22;;;18.30;99.90;;;;;;5082706;28;20051;-62
2023/10/24 06:02:09;;;;;;;73.13;55.15;;;18.00;99.90;;;;;;5061176;28;20427;-61
2023/10/24 06:04:35;;;;;;;68.25;53.78;;;18.70;99.90;;;;;;5065931;28;20133;-62
2023/10/24 06:07:01;;;;;;;66.18;53.40;;;18.70;99.90;;;;;;5063005;28;20044;-61
2023/10/24 06:09:27;;;;;;;64.15;53.03;;;18.70;99.90;;;;;;5063032;28;20045;-62
2023/10/24 06:11:52;;;;;;;56.03;50.08;;;18.10;99.90;;;;;;5066166;28;20059;-62
2023/10/24 06:14:18;;;;;;;57.95;51.70;;;18.20;99.90;;;;;;5064261;28;20067;-62
2023/10/24 06:16:43;;;;;;;56.40;49.90;;;18.60;1.00;;;;;;5064342;28;20036;-61
2023/10/24 06:19:09;;;;;;;54.58;48.53;;;18.50;1.00;;;;;;5059987;28;20055;-64
2023/10/24 06:21:35;;;;;;;55.53;49.40;;;18.40;1.00;;;;;;5063149;28;20086;-66
2023/10/24 06:24:00;;;;;;;53.10;47.42;;;17.80;1.00;;;;;;5065834;28;20402;-66
2023/10/24 06:26:26;;;;;;;55.33;49.38;;;18.30;1.00;;;;;;5062814;28;20490;-65
2023/10/24 06:28:51;;;;;;;54.65;49.05;;;18.90;5.60;;;;;;5064596;28;20040;-65
2023/10/24 06:31:17;;;;;;;58.00;51.20;;;18.40;81.20;;;;;;5062731;28;20071;-65
2023/10/24 06:33:43;;;;;;;53.92;48.30;;;18.80;99.90;;;;;;5061286;28;20036;-64
2023/10/24 06:36:09;;;;;;;54.03;48.35;;;18.00;99.90;;;;;;5064049;28;20679;-65
2023/10/24 06:38:34;;;;;;;54.10;48.33;;;18.10;99.90;;;;;;5061637;28;20032;-65
2023/10/24 06:41:01;;;;;;;54.40;48.00;;;18.70;99.90;;;;;;5060363;28;20032;-65
2023/10/24 06:43:27;;;;;;;58.55;50.58;;;18.10;99.90;;;;;;5062763;28;20539;-65
2023/10/24 06:45:53;;;;;;;56.22;50.05;;;18.50;99.90;;;;;;5061162;28;20839;-65
2023/10/24 06:48:19;;;;;;;59.80;49.92;;;18.00;99.90;;;;;;5057827;28;20514;-65
2023/10/24 06:50:45;;;;;;;61.22;50.95;;;18.00;99.90;;;;;;5063166;28;20043;-65
2023/10/24 06:53:11;;;;;;;72.07;57.20;;;17.90;1.00;;;;;;5063424;28;20090;-65
2023/10/24 06:55:38;;;;;;;71.80;56.53;;;18.60;1.00;;;;;;5060800;28;20033;-65
2023/10/24 06:58:04;;;;;;;75.03;59.20;;;17.90;7.20;;;;;;5061606;28;20525;-65
2023/10/24 07:00:31;;;;;;;87.57;61.42;;;17.90;35.80;;;;;;5060234;28;20453;-65
2023/10/24 07:02:56;;;;;;;86.13;60.55;;;18.80;93.70;;;;;;5059217;28;20776;-65
2023/10/24 07:05:22;;;;;;;89.90;63.20;;;18.60;99.90;;;;;;5061664;28;20040;-65
2023/10/24 07:07:48;;;;;;;89.78;65.95;;;18.60;99.90;;;;;;5060492;28;20075;-65
2023/10/24 07:10:14;;;;;;;91.38;66.28;;;18.20;99.90;;;;;;5061362;28;20079;-64
2023/10/24 07:12:39;;;;;;;89.10;63.78;;;18.30;99.90;;;;;;5062343;28;20102;-65
2023/10/24 07:15:05;;;;;;;91.20;65.47;;;18.00;99.90;;;;;;5057922;28;20067;-65
2023/10/24 07:17:32;;;;;;;91.97;64.75;;;18.00;99.90;;;;;;5060588;28;20032;-65
2023/10/24 07:20:01;;;;;;;86.35;62.65;;;18.80;99.90;;;;;;5059888;28;20055;-65
2023/10/24 07:22:27;;;;;;;97.30;63.53;;;17.90;99.90;;;;;;5062241;28;20082;-65
2023/10/24 07:24:53;;;;;;;90.72;64.97;;;18.30;1.00;;;;;;5060454;28;20102;-65
2023/10/24 07:27:19;;;;;;;88.07;62.00;;;18.30;1.00;;;;;;5061771;28;20044;-64
2023/10/24 07:29:45;;;;;;;87.88;62.90;;;18.80;1.00;;;;;;5063576;28;20049;-61
2023/10/24 07:32:11;;;;;;;82.03;61.17;;;18.40;1.00;;;;;;5064627;28;20817;-63
2023/10/24 07:34:39;;;;;;;74.97;58.55;;;18.60;1.00;;;;;;5066629;28;20064;-65
2023/10/24 07:37:05;;;;;;;78.82;60.35;;;19.30;1.00;;;;;;5065158;28;20055;-61
2023/10/24 07:39:31;;;;;;;74.10;58.85;;;18.70;1.00;;;;;;5064443;28;20045;-61
2023/10/24 07:41:56;;;;;;;76.50;58.85;;;18.60;19.70;;;;;;5065056;28;20044;-60
2023/10/24 07:44:22;;;;;;;79.25;59.20;;;18.20;35.90;;;;;;5065957;28;20044;-62
2023/10/24 07:46:47;;;;;;;75.70;62.17;;;19.20;55.60;;;;;;5064196;28;20470;-60
2023/10/24 07:49:13;;;;;;;74.13;59.60;;;18.80;80.90;;;;;;5064702;28;20047;-60
2023/10/24 07:51:38;;;;;;;70.32;58.35;;;17.90;98.50;;;;;;5064862;28;20040;-64
2023/10/24 07:54:04;;;;;;;73.25;60.38;;;18.30;99.90;;;;;;5064515;28;20083;-61
2023/10/24 07:56:30;;;;;;;72.47;61.08;;;18.20;99.90;;;;;;5065429;28;20036;-62
2023/10/24 07:58:55;;;;;;;71.38;59.75;;;17.90;99.90;;;;;;5064655;28;20028;-61
2023/10/24 08:01:21;;;;;;;76.07;61.10;;;17.90;99.90;;;;;;5063754;28;20242;-63
2023/10/24 08:03:47;;;;;;;66.93;58.97;;;18.70;99.90;;;;;;5071954;28;20101;-63
2023/10/24 08:06:12;;;;;;;79.30;61.60;;;17.80;99.90;;;;;;5066253;28;20043;-61
2023/10/24 08:08:43;;;;;;;71.30;59.33;;;17.90;99.90;;;;;;5065429;28;20455;-62
2023/10/24 08:11:09;;;;;;;66.95;58.03;;;17.90;99.90;;;;;;5062171;28;20120;-61
2023/10/24 08:13:34;;;;;;;62.20;54.45;;;18.50;99.90;;;;;;5065626;28;20109;-61
2023/10/24 08:16:00;;;;;;;63.15;55.25;;;18.50;99.90;;;;;;5065494;28;20041;-61
2023/10/24 08:18:25;;;;;;;62.22;54.63;;;18.70;99.90;;;;;;5066042;28;20068;-61
2023/10/24 08:20:51;;;;;;;65.25;54.92;;;18.30;99.90;;;;;;5064203;28;20541;-61
2023/10/24 08:23:17;;;;;;;64.70;55.55;;;18.60;99.90;;;;;;5061815;28;20105;-62
2023/10/24 08:25:42;;;;;;;70.90;59.28;;;18.70;99.90;;;;;;5062821;28;20127;-60
2023/10/24 08:28:08;;;;;;;84.05;64.65;;;17.80;99.90;;;;;;5063275;28;20040;-64
2023/10/24 08:30:34;;;;;;;78.00;62.90;;;18.70;99.90;;;;;;5061821;28;20055;-61
2023/10/24 08:33:00;;;;;;;77.07;65.63;;;20.50;99.90;;;;;;5064098;28;20036;-62
2023/10/24 08:35:26;;;;;;;82.18;65.13;;;17.80;99.90;;;;;;5065044;28;20024;-62
2023/10/24 08:37:51;;;;;;;82.47;67.70;;;18.60;99.90;;;;;;5062697;28;20098;-62
2023/10/24 08:40:17;;;;;;;73.47;65.40;;;18.30;99.90;;;;;;5062531;28;20513;-62
2023/10/24 08:42:43;;;;;;;69.90;62.60;;;17.80;99.90;;;;;;5064956;28;20047;-61
2023/10/24 08:45:10;;;;;;;71.28;63.83;;;18.30;99.90;;;;;;5065153;28;20072;-65
2023/10/24 08:47:36;;;;;;;73.25;65.45;;;17.90;99.90;;;;;;5064129;28;20048;-65
2023/10/24 08:50:03;;;;;;;70.20;63.03;;;17.80;99.90;;;;;;5058852;28;20132;-66
2023/10/24 08:52:31;;;;;;;70.13;62.83;;;18.70;99.90;;;;;;5062320;28;20041;-66
2023/10/24 08:55:04;;;;;;;68.55;61.47;;;18.40;99.90;;;;;;5060400;28;20465;-65
2023/10/24 08:57:33;;;;;;;69.78;62.78;;;18.60;99.90;;;;;;5062300;28;20246;-65
2023/10/24 08:59:59;;;;;;;67.15;60.33;;;18.00;99.90;;;;;;5058779;28;20048;-65
2023/10/24 09:02:25;;;;;;;69.93;62.83;;;18.80;99.90;;;;;;5060497;28;20054;-65
2023/10/24 09:04:51;;;;;;;69.13;62.08;;;18.40;99.90;;;;;;5057602;28;20582;-65
2023/10/24 09:07:16;;;;;;;70.63;63.08;;;18.30;99.90;;;;;;5063339;28;20036;-65
2023/10/24 09:09:42;;;;;;;71.57;64.30;;;18.30;99.90;;;;;;5063927;28;20592;-66
2023/10/24 09:12:14;;;;;;;71.80;64.38;;;18.70;99.90;;;;;;5063956;28;20060;-66
2023/10/24 09:14:44;;;;;;;69.78;62.80;;;18.20;99.90;;;;;;5064613;28;20408;-66
2023/10/24 09:17:11;;;;;;;66.55;59.78;;;18.70;99.90;;;;;;5065063;28;20075;-66
2023/10/24 09:19:42;;;;;;;69.05;62.13;;;18.50;99.90;;;;;;5063631;28;20418;-65
2023/10/24 09:22:14;;;;;;;71.05;63.88;;;18.20;99.90;;;;;;5062617;28;20141;-65
2023/10/24 09:24:44;;;;;;;70.28;63.05;;;18.80;99.90;;;;;;5064392;28;20044;-66
2023/10/24 09:27:09;;;;;;;72.88;65.22;;;18.40;99.90;;;;;;5065006;28;20040;-65
2023/10/24 09:29:36;;;;;;;69.60;62.50;;;18.60;99.90;;;;;;5063506;28;20043;-65
2023/10/24 09:32:02;;;;;;;75.38;67.38;;;18.30;99.90;;;;;;5064419;28;20052;-65
2023/10/24 09:34:28;;;;;;;70.38;62.80;;;18.50;99.90;;;;;;5064030;28;20131;-65
2023/10/24 09:37:06;;;;;;;71.18;64.05;;;18.70;99.90;;;;;;5058850;28;20645;-65
2023/10/24 09:39:31;;;;;;;67.55;60.75;;;18.90;99.90;;;;;;5059227;28;20047;-65
2023/10/24 09:41:57;;;;;;;67.65;60.45;;;18.60;99.90;;;;;;5055871;28;20526;-66
2023/10/24 09:44:24;;;;;;;68.82;61.53;;;18.80;99.90;;;;;;5057863;28;20048;-65
2023/10/24 09:46:51;;;;;;;70.72;62.65;;;18.60;99.90;;;;;;5058835;28;20040;-65
2023/10/24 09:49:18;;;;;;;72.22;64.65;;;18.40;99.90;;;;;;5062229;28;20418;-65
2023/10/24 09:51:44;;;;;;;70.40;61.08;;;18.30;99.90;;;;;;5062465;28;20559;-65
2023/10/24 09:54:11;;;;;;;69.50;61.15;;;18.20;99.90;;;;;;5062332;28;20040;-64
2023/10/24 09:56:37;;;;;;;76.68;66.13;;;18.90;99.90;;;;;;5062887;28;20072;-65
2023/10/24 09:59:04;;;;;;;71.35;60.85;;;18.20;99.90;;;;;;5061450;28;20074;-65
2023/10/24 10:01:31;;;;;;;73.55;64.93;;;18.50;99.90;;;;;;5061096;28;20116;-65
2023/10/24 10:04:00;;;;;;;73.10;65.60;;;18.70;99.90;;;;;;5060869;28;20136;-65
2023/10/24 10:06:30;;;;;;;74.10;65.15;;;18.70;99.90;;;;;;5063497;28;20048;-65
2023/10/24 10:08:59;;;;;;;70.75;63.40;;;18.30;99.90;;;;;;5062184;28;20405;-65
2023/10/24 10:11:27;;;;;;;81.10;67.38;;;18.70;99.90;;;;;;5061999;28;20048;-65
2023/10/24 10:14:08;;;;;;;76.05;65.32;;;18.70;99.90;;;;;;5062658;28;20040;-65
2023/10/24 10:16:48;;;;;;;72.82;65.47;;;18.20;99.90;;;;;;5062589;28;20036;-64
2023/10/24 10:19:46;;;;;;;77.53;66.30;;;18.80;99.90;;;;;;5061458;28;20490;-65
2023/10/24 10:22:14;;;;;;;74.68;66.35;;;18.90;99.90;;;;;;5062116;28;20047;-65
2023/10/24 10:24:59;;;;;;;80.22;66.57;;;18.20;99.90;;;;;;5062847;28;20047;-64
2023/10/24 10:27:47;;;;;;;73.85;65.82;;;18.80;99.90;;;;;;5061647;28;20044;-65
2023/10/24 10:30:47;;;;;;;74.60;66.28;;;18.80;99.90;;;;;;5061601;28;20040;-65
2023/10/24 10:33:16;;;;;;;74.63;67.22;;;18.20;99.90;;;;;;5062051;28;20137;-65
2023/10/24 10:35:56;;;;;;;74.72;66.95;;;19.00;99.90;;;;;;5066460;28;20068;-65
2023/10/24 10:38:43;;;;;;;74.53;67.05;;;18.20;99.90;;;;;;5061811;28;20036;-66
2023/10/24 10:41:23;;;;;;;;;;;18.30;99.90;;;;;;5062102;28;20040;-66
2023/10/24 10:43:58;;;;;;;74.13;66.35;;;18.90;99.90;;;;;;5062450;28;19945;-65
2023/10/24 10:46:28;;;;;;;74.80;67.05;;;18.60;99.90;;;;;;5061036;28;20059;-64
2023/10/24 10:48:59;;;;;;;76.05;68.05;;;18.90;99.90;;;;;;5060611;28;20249;-64
2023/10/24 10:51:38;;;;;;;72.53;64.63;;;18.30;99.90;;;;;;5061734;28;20036;-65
2023/10/24 10:54:33;;;;;;;74.60;66.95;;;18.90;99.90;;;;;;5062010;28;20051;-65
2023/10/24 10:57:03;;;;;;;75.68;68.28;;;19.00;99.90;;;;;;5062814;28;20040;-66
2023/10/24 10:59:32;;;;;;;71.95;64.80;;;19.00;99.90;;;;;;5062571;28;20037;-65
2023/10/24 11:02:20;;;;;;;75.72;68.60;;;18.30;99.90;;;;;;5061094;28;20834;-65
2023/10/24 11:04:46;;;;;;;73.95;66.72;;;18.80;99.90;;;;;;5063566;28;20137;-66
2023/10/24 11:07:11;;;;;;;72.22;65.22;;;18.40;99.90;;;;;;5066447;28;20052;-65
2023/10/24 11:09:38;;;;;;;70.20;63.63;;;18.90;99.90;;;;;;5065461;28;20045;-63
2023/10/24 11:12:23;;;;;;;69.43;62.78;;;18.50;99.90;;;;;;5067039;28;20063;-61
2023/10/24 11:15:07;;;;;;;72.40;65.38;;;20.00;99.90;;;;;;5063806;28;20245;-63
2023/10/24 11:17:33;;;;;;;69.45;62.80;;;18.60;99.90;;;;;;5065556;28;20051;-62
2023/10/24 11:20:00;;;;;;;69.97;63.22;;;18.80;99.90;;;;;;5065594;28;20141;-63
2023/10/24 11:22:26;;;;;;;69.20;62.58;;;19.10;99.90;;;;;;5067220;28;20037;-62
2023/10/24 11:24:52;;;;;;;71.05;64.13;;;18.70;99.90;;;;;;5066685;28;20578;-62
2023/10/24 11:27:22;;;;;;;69.55;62.83;;;18.90;99.90;;;;;;5065283;28;20123;-64
2023/10/24 11:29:48;;;;;;;67.65;61.15;;;18.90;99.90;;;;;;5066094;28;20036;-61
2023/10/24 11:32:14;;;;;;;67.03;60.75;;;18.70;99.90;;;;;;5066334;28;20032;-61
2023/10/24 11:34:40;;;;;;;66.97;60.67;;;18.80;99.90;;;;;;5064882;28;20040;-61
2023/10/24 11:37:08;;;;;;;67.20;60.80;;;18.60;99.90;;;;;;5067404;28;20040;-62
2023/10/24 11:39:34;;;;;;;68.10;61.55;;;18.60;99.90;;;;;;5066058;28;20501;-62
2023/10/24 11:42:02;;;;;;;66.93;60.33;;;18.70;99.90;;;;;;5063151;28;21759;-63
2023/10/24 11:44:28;;;;;;;65.05;58.67;;;19.10;99.90;;;;;;5063738;28;20044;-63
2023/10/24 11:46:54;;;;;;;65.15;58.38;;;19.00;99.90;;;;;;5062767;28;20102;-62
2023/10/24 11:49:19;;;;;;;64.00;57.83;;;18.90;99.90;;;;;;5064686;28;20040;-64
2023/10/24 11:51:46;;;;;;;60.63;54.67;;;18.70;99.90;;;;;;5065606;28;20086;-63
2023/10/24 11:54:12;;;;;;;61.38;55.28;;;18.70;99.90;;;;;;5065810;28;20098;-61
2023/10/24 11:56:38;;;;;;;58.15;52.75;;;19.20;99.90;;;;;;5064715;28;20036;-63
2023/10/24 11:59:04;;;;;;;60.05;54.38;;;19.20;99.90;;;;;;5065577;28;20036;-64
2023/10/24 12:01:32;;;;;;;58.63;53.00;;;19.20;99.90;;;;;;5065086;28;20040;-62
2023/10/24 12:03:59;;;;;;;58.58;52.95;;;19.20;99.90;;;;;;5064626;28;20139;-61
2023/10/24 12:06:26;;;;;;;59.38;53.53;;;19.10;99.90;;;;;;5063585;28;20040;-61
2023/10/24 12:08:52;;;;;;;55.38;49.67;;;19.40;99.90;;;;;;5064919;28;20048;-61
2023/10/24 12:11:19;;;;;;;54.92;49.67;;;18.90;99.90;;;;;;5063396;28;20494;-64
2023/10/24 12:13:48;;;;;;;55.30;50.05;;;19.30;99.90;;;;;;5062625;28;20044;-61
2023/10/24 12:16:14;;;;;;;51.30;46.38;;;19.10;31.50;;;;;;5061216;28;20593;-63
2023/10/24 12:18:40;;;;;;;53.90;48.50;;;18.90;1.00;;;;;;5065886;28;20744;-61
2023/10/24 12:21:08;;;;;;;52.83;47.53;;;19.10;1.00;;;;;;5063215;28;20052;-62
2023/10/24 12:23:35;;;;;;;52.63;47.47;;;19.10;99.90;;;;;;5065007;28;20115;-62
2023/10/24 12:26:02;;;;;;;52.80;47.55;;;19.10;99.90;;;;;;5064687;28;20059;-63
2023/10/24 12:28:28;;;;;;;51.97;46.75;;;19.30;99.90;;;;;;5063722;28;20048;-64
2023/10/24 12:30:54;;;;;;;52.35;47.00;;;19.20;1.00;;;;;;5063083;28;20341;-62